createdAt,value
2018-08-18T00:00:37.815Z,101713.36
2018-08-18T00:03:07.172Z,101715.66
2018-08-18T00:05:37.012Z,101718.89
2018-08-18T00:08:07.379Z,101718.50
2018-08-18T00:10:36.848Z,101717.19
2018-08-18T00:13:08.988Z,101718.63
2018-08-18T00:15:38.417Z,101718.81
2018-08-18T00:18:07.500Z,101721.39
2018-08-18T00:20:36.744Z,101719.19
2018-08-18T00:23:07.622Z,101717.73
2018-08-18T00:25:36.686Z,101715.08
2018-08-18T00:28:16.598Z,101724.33
2018-08-18T00:30:45.686Z,101716.50
2018-08-18T00:33:14.786Z,101721.37
2018-08-18T00:35:44.288Z,101718.12
2018-08-18T00:38:13.559Z,101715.75
2018-08-18T00:40:42.618Z,101712.22
2018-08-18T00:43:11.960Z,101724.23
2018-08-18T00:45:41.075Z,101719.27
2018-08-18T00:48:10.254Z,101724.98
2018-08-18T00:50:43.365Z,101725.17
2018-08-18T00:53:14.790Z,101724.83
2018-08-18T00:55:44.024Z,101726.86
2018-08-18T00:58:17.640Z,101729.22
2018-08-18T01:00:51.365Z,101731.05
2018-08-18T01:03:20.521Z,101724.44
2018-08-18T01:05:49.610Z,101729.77
2018-08-18T01:08:19.311Z,101727.70
2018-08-18T01:10:48.349Z,101730.05
2018-08-18T01:13:17.442Z,101729.40
2018-08-18T01:15:47.006Z,101728.91
2018-08-18T01:18:16.148Z,101737.59
2018-08-18T01:20:45.222Z,101736.35
2018-08-18T01:23:14.582Z,101734.70
2018-08-18T01:25:43.695Z,101734.80
2018-08-18T01:28:12.799Z,101738.98
2018-08-18T01:30:42.102Z,101738.80
2018-08-18T01:33:11.183Z,101746.70
2018-08-18T01:35:40.251Z,101745.84
2018-08-18T01:38:09.592Z,101752.97
2018-08-18T01:40:38.658Z,101746.98
2018-08-18T01:43:08.484Z,101753.16
2018-08-18T01:45:37.615Z,101762.03
2018-08-18T01:48:07.753Z,101760.79
2018-08-18T01:50:36.930Z,101761.66
2018-08-18T01:53:07.683Z,101762.98
2018-08-18T01:55:36.749Z,101760.09
2018-08-18T01:58:07.851Z,101764.56
2018-08-18T02:00:36.878Z,101758.99
2018-08-18T02:03:08.368Z,101761.47
2018-08-18T02:05:52.333Z,101759.00
2018-08-18T02:08:24.645Z,101758.44
2018-08-18T02:10:53.746Z,101751.67
2018-08-18T02:13:23.572Z,101757.29
2018-08-18T02:15:52.717Z,101754.80
2018-08-18T02:18:21.819Z,101753.47
2018-08-18T02:20:51.314Z,101750.98
2018-08-18T02:23:20.427Z,101750.77
2018-08-18T02:25:49.503Z,101750.16
2018-08-18T02:28:27.220Z,101752.09
2018-08-18T02:30:56.323Z,101751.77
2018-08-18T02:33:25.377Z,101743.48
2018-08-18T02:35:54.628Z,101751.75
2018-08-18T02:38:23.937Z,101750.11
2018-08-18T02:40:53.296Z,101750.11
2018-08-18T02:43:24.678Z,101756.69
2018-08-18T02:45:53.959Z,101755.25
2018-08-18T02:48:23.458Z,101754.17
2018-08-18T02:50:52.804Z,101757.40
2018-08-18T02:53:26.970Z,101757.48
2018-08-18T02:55:56.718Z,101759.78
2018-08-18T02:58:25.939Z,101755.55
2018-08-18T03:00:55.497Z,101759.20
2018-08-18T03:03:25.160Z,101760.57
2018-08-18T03:05:57.184Z,101754.98
2018-08-18T03:08:26.279Z,101764.10
2018-08-18T03:10:55.490Z,101762.70
2018-08-18T03:13:27.268Z,101757.63
2018-08-18T03:15:57.799Z,101760.18
2018-08-18T03:18:54.013Z,101765.27
2018-08-18T03:21:29.266Z,101776.09
2018-08-18T03:24:11.197Z,101773.05
2018-08-18T03:26:46.310Z,101774.23
2018-08-18T03:29:16.492Z,101776.22
2018-08-18T03:31:46.664Z,101773.69
2018-08-18T03:34:16.405Z,101771.94
2018-08-18T03:36:49.142Z,101775.14
2018-08-18T03:39:29.879Z,101782.30
2018-08-18T03:42:04.883Z,101780.97
2018-08-18T03:44:40.239Z,101775.89
2018-08-18T03:47:09.417Z,101783.66
2018-08-18T03:49:38.532Z,101785.98
2018-08-18T03:52:08.020Z,101786.14
2018-08-18T03:54:37.137Z,101789.05
2018-08-18T03:57:07.855Z,101790.51
2018-08-18T03:59:36.928Z,101792.79
2018-08-18T04:02:07.469Z,101791.46
2018-08-18T04:04:37.530Z,101793.70
2018-08-18T04:07:09.072Z,101794.66
2018-08-18T04:09:39.322Z,101786.37
2018-08-18T04:12:09.984Z,101793.23
2018-08-18T04:14:41.339Z,101791.37
2018-08-18T04:17:21.734Z,101798.43
2018-08-18T04:19:51.742Z,101793.48
2018-08-18T04:22:22.374Z,101793.87
2018-08-18T04:24:51.886Z,101791.62
2018-08-18T04:27:35.356Z,101800.68
2018-08-18T04:30:05.950Z,101802.96
2018-08-18T04:32:48.007Z,101804.45
2018-08-18T04:35:17.712Z,101803.27
2018-08-18T04:37:46.703Z,101808.59
2018-08-18T04:40:15.788Z,101807.73
2018-08-18T04:42:45.023Z,101806.86
2018-08-18T04:45:15.904Z,101802.03
2018-08-18T04:47:45.355Z,101804.84
2018-08-18T04:50:14.600Z,101803.18
2018-08-18T04:52:43.732Z,101808.66
2018-08-18T04:55:14.504Z,101804.66
2018-08-18T04:57:43.598Z,101800.14
2018-08-18T05:00:13.826Z,101804.13
2018-08-18T05:02:59.786Z,101806.25
2018-08-18T05:05:30.168Z,101809.30
2018-08-18T05:08:01.368Z,101809.59
2018-08-18T05:10:30.880Z,101811.88
2018-08-18T05:12:59.987Z,101825.48
2018-08-18T05:15:29.317Z,101827.77
2018-08-18T05:17:58.440Z,101819.06
2018-08-18T05:20:28.185Z,101824.80
2018-08-18T05:23:12.933Z,101830.12
2018-08-18T05:25:42.095Z,101833.87
2018-08-18T05:28:11.147Z,101834.26
2018-08-18T05:30:40.409Z,101837.38
2018-08-18T05:33:10.582Z,101842.67
2018-08-18T05:35:42.974Z,101837.92
2018-08-18T05:38:12.094Z,101834.09
2018-08-18T05:40:41.160Z,101840.73
2018-08-18T05:43:11.845Z,101837.59
2018-08-18T05:45:40.952Z,101837.44
2018-08-18T05:48:10.257Z,101839.17
2018-08-18T05:50:39.660Z,101840.43
2018-08-18T05:53:33.029Z,101847.08
2018-08-18T05:56:03.327Z,101849.02
2018-08-18T05:58:49.108Z,101845.90
2018-08-18T06:01:27.902Z,101852.81
2018-08-18T06:04:04.175Z,101843.19
2018-08-18T06:06:33.816Z,101847.33
2018-08-18T06:09:02.891Z,101849.91
2018-08-18T06:11:32.124Z,101850.25
2018-08-18T06:14:01.220Z,101850.92
2018-08-18T06:16:30.317Z,101857.02
2018-08-18T06:18:59.810Z,101857.54
2018-08-18T06:21:28.930Z,101862.50
2018-08-18T06:23:58.500Z,101861.00
2018-08-18T06:26:28.400Z,101864.19
2018-08-18T06:28:58.429Z,101860.11
2018-08-18T06:31:27.531Z,101856.98
2018-08-18T06:33:56.658Z,101860.45
2018-08-18T06:36:26.420Z,101857.16
2018-08-18T06:38:55.540Z,101863.00
2018-08-18T06:41:24.736Z,101858.38
2018-08-18T06:43:54.148Z,101859.63
2018-08-18T06:46:23.219Z,101864.55
2018-08-18T06:48:52.472Z,101869.38
2018-08-18T06:51:21.929Z,101868.20
2018-08-18T06:53:51.006Z,101866.05
2018-08-18T06:56:20.125Z,101861.71
2018-08-18T06:58:49.921Z,101864.53
2018-08-18T07:01:18.996Z,101869.09
2018-08-18T07:03:48.533Z,101868.38
2018-08-18T07:06:18.223Z,101870.82
2018-08-18T07:08:54.423Z,101863.61
2018-08-18T07:11:31.236Z,101863.63
2018-08-18T07:14:01.928Z,101863.00
2018-08-18T07:16:30.985Z,101864.86
2018-08-18T07:19:00.116Z,101859.95
2018-08-18T07:21:29.408Z,101859.59
2018-08-18T07:23:58.622Z,101862.09
2018-08-18T07:26:28.114Z,101862.55
2018-08-18T07:28:57.304Z,101863.16
2018-08-18T07:31:26.702Z,101864.59
2018-08-18T07:33:55.820Z,101869.89
2018-08-18T07:36:24.945Z,101871.19
2018-08-18T07:38:54.438Z,101868.16
2018-08-18T07:41:23.545Z,101873.59
2018-08-18T07:43:52.618Z,101876.08
2018-08-18T07:46:22.507Z,101872.94
2018-08-18T07:48:51.818Z,101876.48
2018-08-18T07:51:20.915Z,101874.78
2018-08-18T07:53:49.990Z,101873.75
2018-08-18T07:56:19.258Z,101872.70
2018-08-18T07:58:48.322Z,101875.00
2018-08-18T08:01:17.402Z,101881.17
2018-08-18T08:03:46.694Z,101880.16
2018-08-18T08:06:15.792Z,101881.48
2018-08-18T08:08:49.578Z,101883.03
2018-08-18T08:11:18.678Z,101880.08
2018-08-18T08:13:47.825Z,101882.88
2018-08-18T08:16:17.089Z,101881.63
2018-08-18T08:18:46.200Z,101885.93
2018-08-18T08:21:15.589Z,101887.59
2018-08-18T08:23:44.701Z,101890.73
2018-08-18T08:26:13.818Z,101895.33
2018-08-18T08:28:43.275Z,101890.56
2018-08-18T08:31:12.350Z,101888.16
2018-08-18T08:33:41.513Z,101890.05
2018-08-18T08:36:17.322Z,101899.30
2018-08-18T08:38:51.377Z,101899.38
2018-08-18T08:41:23.076Z,101900.82
2018-08-18T08:43:52.117Z,101899.95
2018-08-18T08:46:21.499Z,101901.09
2018-08-18T08:48:55.680Z,101900.18
2018-08-18T08:51:25.512Z,101897.80
2018-08-18T08:53:56.023Z,101903.00
2018-08-18T08:56:35.762Z,101896.41
2018-08-18T08:59:05.124Z,101899.08
2018-08-18T09:01:34.813Z,101899.64
2018-08-18T09:04:04.767Z,101900.87
2018-08-18T09:06:35.438Z,101891.24
2018-08-18T09:09:06.931Z,101891.75
2018-08-18T09:11:36.266Z,101899.42
2018-08-18T09:14:07.574Z,101893.64
2018-08-18T09:16:36.948Z,101895.53
2018-08-18T09:19:06.043Z,101896.23
2018-08-18T09:21:44.147Z,101896.42
2018-08-18T09:24:13.579Z,101887.25
2018-08-18T09:26:47.986Z,101894.13
2018-08-18T09:29:17.059Z,101895.08
2018-08-18T09:31:46.527Z,101892.01
2018-08-18T09:34:16.376Z,101894.63
2018-08-18T09:36:46.476Z,101886.44
2018-08-18T09:39:33.583Z,101888.94
2018-08-18T09:42:03.566Z,101885.82
2018-08-18T09:44:34.931Z,101877.85
2018-08-18T09:47:04.373Z,101879.56
2018-08-18T09:49:33.616Z,101883.48
2018-08-18T09:52:02.805Z,101881.47
2018-08-18T09:54:32.092Z,101881.33
2018-08-18T09:57:01.313Z,101880.13
2018-08-18T09:59:31.336Z,101884.36
2018-08-18T10:02:00.696Z,101880.00
2018-08-18T10:04:29.814Z,101879.75
2018-08-18T10:06:58.919Z,101880.76
2018-08-18T10:09:28.280Z,101879.48
2018-08-18T10:11:57.589Z,101872.91
2018-08-18T10:14:26.702Z,101873.61
2018-08-18T10:16:55.817Z,101869.11
2018-08-18T10:19:25.027Z,101867.91
2018-08-18T10:21:54.379Z,101871.09
2018-08-18T10:24:23.766Z,101879.98
2018-08-18T10:26:58.225Z,101873.33
2018-08-18T10:29:27.887Z,101867.41
2018-08-18T10:31:57.988Z,101863.42
2018-08-18T10:34:28.471Z,101870.27
2018-08-18T10:37:02.827Z,101869.20
2018-08-18T10:39:32.140Z,101858.94
2018-08-18T10:42:22.997Z,101850.00
2018-08-18T10:44:57.679Z,101855.97
2018-08-18T10:47:26.790Z,101853.33
2018-08-18T10:50:07.564Z,101854.88
2018-08-18T10:52:48.031Z,101852.10
2018-08-18T10:55:18.458Z,101855.38
2018-08-18T10:57:59.293Z,101852.70
2018-08-18T11:00:29.954Z,101860.28
2018-08-18T11:03:06.442Z,101854.67
2018-08-18T11:05:36.037Z,101855.90
2018-08-18T11:08:08.949Z,101853.80
2018-08-18T11:10:40.749Z,101851.87
2018-08-18T11:13:09.864Z,101855.19
2018-08-18T11:15:39.146Z,101851.78
2018-08-18T11:18:08.660Z,101867.41
2018-08-18T11:20:37.734Z,101863.25
2018-08-18T11:23:14.487Z,101857.99
2018-08-18T11:25:47.884Z,101843.63
2018-08-18T11:28:18.127Z,101855.50
2018-08-18T11:30:47.272Z,101852.78
2018-08-18T11:33:33.017Z,101858.55
2018-08-18T11:36:02.330Z,101858.31
2018-08-18T11:38:31.898Z,101862.00
2018-08-18T11:41:01.780Z,101855.16
2018-08-18T11:43:33.541Z,101846.96
2018-08-18T11:46:02.738Z,101845.16
2018-08-18T11:48:32.330Z,101843.69
2018-08-18T11:51:01.822Z,101841.13
2018-08-18T11:53:30.886Z,101839.52
2018-08-18T11:55:59.982Z,101831.56
2018-08-18T11:58:29.530Z,101833.03
2018-08-18T12:00:59.801Z,101828.03
2018-08-18T12:03:32.346Z,101831.83
2018-08-18T12:06:04.800Z,101829.58
2018-08-18T12:08:35.932Z,101822.72
2018-08-18T12:11:06.925Z,101826.05
2018-08-18T12:13:41.053Z,101819.95
2018-08-18T12:16:16.070Z,101816.80
2018-08-18T12:18:46.187Z,101821.20
2018-08-18T12:21:15.692Z,101834.52
2018-08-18T12:23:46.551Z,101825.23
2018-08-18T12:26:22.126Z,101827.21
2018-08-18T12:28:53.903Z,101816.02
2018-08-18T12:31:24.467Z,101820.35
2018-08-18T12:33:54.132Z,101820.23
2018-08-18T12:36:23.537Z,101813.29
2018-08-18T12:38:56.216Z,101808.03
2018-08-18T12:41:25.309Z,101809.30
2018-08-18T12:43:56.370Z,101811.17
2018-08-18T12:46:30.692Z,101804.08
2018-08-18T12:49:00.250Z,101804.22
2018-08-18T12:51:29.336Z,101794.91
2018-08-18T12:53:58.469Z,101805.86
2018-08-18T12:56:28.701Z,101794.84
2018-08-18T12:58:57.806Z,101796.20
2018-08-18T13:01:41.453Z,101785.67
2018-08-18T13:04:13.101Z,101786.08
2018-08-18T13:06:44.716Z,101781.78
2018-08-18T13:09:15.026Z,101783.20
2018-08-18T13:11:45.568Z,101785.28
2018-08-18T13:14:22.288Z,101777.41
2018-08-18T13:16:52.082Z,101767.66
2018-08-18T13:19:23.306Z,101770.25
2018-08-18T13:21:53.174Z,101785.03
2018-08-18T13:24:22.545Z,101777.33
2018-08-18T13:26:51.724Z,101771.56
2018-08-18T13:29:21.246Z,101765.34
2018-08-18T13:31:50.324Z,101764.02
2018-08-18T13:34:19.549Z,101760.50
2018-08-18T13:36:48.778Z,101757.16
2018-08-18T13:39:19.094Z,101751.59
2018-08-18T13:41:49.489Z,101743.94
2018-08-18T13:44:27.160Z,101743.97
2018-08-18T13:46:56.485Z,101749.59
2018-08-18T13:49:26.436Z,101742.59
2018-08-18T13:51:55.584Z,101753.23
2018-08-18T13:54:25.395Z,101742.69
2018-08-18T13:56:54.469Z,101737.61
2018-08-18T14:02:16.463Z,101743.41
2018-08-18T14:04:45.560Z,101733.62
2018-08-18T14:07:14.856Z,101734.04
2018-08-18T14:09:48.722Z,101728.52
2018-08-18T14:12:18.671Z,101732.10
2018-08-18T14:14:48.499Z,101730.22
2018-08-18T14:17:19.994Z,101725.31
2018-08-18T14:19:50.015Z,101731.36
2018-08-18T14:22:20.130Z,101727.73
2018-08-18T14:24:49.196Z,101727.94
2018-08-18T14:27:21.091Z,101725.06
2018-08-18T14:29:50.213Z,101717.42
2018-08-18T14:32:25.414Z,101724.39
2018-08-18T14:34:59.395Z,101728.44
2018-08-18T14:37:28.748Z,101727.30
2018-08-18T14:39:57.934Z,101721.09
2018-08-18T14:42:26.967Z,101724.67
2018-08-18T14:44:56.684Z,101724.70
2018-08-18T14:47:25.865Z,101722.83
2018-08-18T14:50:10.763Z,101718.24
2018-08-18T14:52:40.067Z,101716.88
2018-08-18T14:55:09.286Z,101715.19
2018-08-18T14:57:46.296Z,101714.52
2018-08-18T15:00:15.369Z,101716.91
2018-08-18T15:02:44.454Z,101712.50
2018-08-18T15:05:13.722Z,101714.52
2018-08-18T15:07:47.455Z,101706.20
2018-08-18T15:10:31.493Z,101706.09
2018-08-18T15:13:01.295Z,101710.61
2018-08-18T15:15:31.356Z,101711.09
2018-08-18T15:18:02.503Z,101705.11
2018-08-18T15:20:33.856Z,101709.09
2018-08-18T15:23:03.804Z,101706.70
2018-08-18T15:25:34.096Z,101702.98
2018-08-18T15:28:04.361Z,101706.33
2018-08-18T15:30:34.329Z,101709.13
2018-08-18T15:33:03.448Z,101700.72
2018-08-18T15:35:35.989Z,101703.24
2018-08-18T15:38:06.242Z,101700.52
2018-08-18T15:40:35.323Z,101698.48
2018-08-18T15:43:04.742Z,101701.56
2018-08-18T15:45:42.598Z,101698.77
2018-08-18T15:48:11.697Z,101692.14
2018-08-18T15:50:40.744Z,101690.42
2018-08-18T15:53:10.137Z,101691.61
2018-08-18T15:55:39.432Z,101684.53
2018-08-18T15:58:08.528Z,101689.17
2018-08-18T16:00:38.012Z,101682.99
2018-08-18T16:03:07.111Z,101687.13
2018-08-18T16:05:36.462Z,101685.66
2018-08-18T16:08:05.699Z,101690.50
2018-08-18T16:10:34.921Z,101691.17
2018-08-18T16:13:03.988Z,101687.07
2018-08-18T16:15:33.058Z,101686.50
2018-08-18T16:18:02.500Z,101686.24
2018-08-18T16:20:32.967Z,101689.81
2018-08-18T16:23:03.251Z,101685.19
2018-08-18T16:25:36.782Z,101689.34
2018-08-18T16:28:06.826Z,101684.23
2018-08-18T16:30:36.450Z,101684.55
2018-08-18T16:33:19.099Z,101687.83
2018-08-18T16:35:48.744Z,101689.56
2018-08-18T16:38:17.831Z,101689.98
2018-08-18T16:40:46.942Z,101685.70
2018-08-18T16:43:17.091Z,101687.91
2018-08-18T16:45:46.180Z,101687.38
2018-08-18T16:48:15.246Z,101685.10
2018-08-18T16:50:44.615Z,101689.75
2018-08-18T16:53:14.546Z,101690.55
2018-08-18T16:55:45.257Z,101686.78
2018-08-18T16:58:14.488Z,101687.05
2018-08-18T17:00:56.900Z,101686.23
2018-08-18T17:03:30.714Z,101683.95
2018-08-18T17:06:01.071Z,101687.45
2018-08-18T17:08:30.916Z,101688.86
2018-08-18T17:11:00.315Z,101690.70
2018-08-18T17:13:32.567Z,101693.33
2018-08-18T17:16:02.053Z,101689.59
2018-08-18T17:18:31.183Z,101692.30
2018-08-18T17:21:02.619Z,101691.05
2018-08-18T17:23:33.376Z,101687.62
2018-08-18T17:26:02.853Z,101687.55
2018-08-18T17:28:32.728Z,101692.95
2018-08-18T17:31:02.413Z,101697.44
2018-08-18T17:33:32.498Z,101696.98
2018-08-18T17:36:01.724Z,101699.33
2018-08-18T17:38:30.826Z,101704.20
2018-08-18T17:41:00.098Z,101700.77
2018-08-18T17:43:30.112Z,101705.34
2018-08-18T17:46:00.735Z,101699.34
2018-08-18T17:48:33.603Z,101702.91
2018-08-18T17:51:02.721Z,101713.09
2018-08-18T17:53:31.911Z,101715.84
2018-08-18T17:56:05.098Z,101707.45
2018-08-18T17:58:34.908Z,101707.84
2018-08-18T18:01:06.276Z,101711.33
2018-08-18T18:03:35.998Z,101711.21
2018-08-18T18:06:05.154Z,101708.05
2018-08-18T18:08:34.289Z,101713.17
2018-08-18T18:11:03.784Z,101713.62
2018-08-18T18:13:34.941Z,101718.41
2018-08-18T18:16:10.000Z,101717.67
2018-08-18T18:18:44.900Z,101723.62
2018-08-18T18:21:14.277Z,101727.77
2018-08-18T18:23:43.817Z,101733.07
2018-08-18T18:28:41.222Z,101738.14
2018-08-18T18:31:10.290Z,101737.09
2018-08-18T18:33:40.007Z,101731.58
2018-08-18T18:36:09.093Z,101734.67
2018-08-18T18:38:53.093Z,101739.58
2018-08-18T18:41:22.183Z,101744.12
2018-08-18T18:43:59.085Z,101741.30
2018-08-18T18:46:28.343Z,101743.88
2018-08-18T18:48:57.688Z,101746.80
2018-08-18T18:51:27.219Z,101751.73
2018-08-18T18:53:57.614Z,101757.80
2018-08-18T18:56:26.963Z,101758.16
2018-08-18T18:58:56.111Z,101758.80
2018-08-18T19:01:27.166Z,101764.39
2018-08-18T19:03:56.262Z,101765.13
2018-08-18T19:06:25.390Z,101765.52
2018-08-18T19:09:02.140Z,101771.48
2018-08-18T19:11:31.366Z,101767.72
2018-08-18T19:14:00.731Z,101778.84
2018-08-18T19:16:29.791Z,101778.72
2018-08-18T19:18:58.848Z,101789.95
2018-08-18T19:21:30.845Z,101788.60
2018-08-18T19:24:00.603Z,101788.58
2018-08-18T19:26:44.752Z,101788.94
2018-08-18T19:29:14.029Z,101786.48
2018-08-18T19:31:43.149Z,101789.66
2018-08-18T19:34:15.833Z,101791.36
2018-08-18T19:36:56.312Z,101790.94
2018-08-18T19:39:27.429Z,101797.41
2018-08-18T19:42:06.864Z,101797.41
2018-08-18T19:44:48.711Z,101802.16
2018-08-18T19:47:26.221Z,101798.20
2018-08-18T19:49:55.500Z,101797.73
2018-08-18T19:52:24.808Z,101792.48
2018-08-18T19:54:54.044Z,101801.36
2018-08-18T19:57:29.026Z,101799.98
2018-08-18T20:00:07.932Z,101798.64
2018-08-18T20:02:52.452Z,101799.73
2018-08-18T20:05:22.704Z,101803.77
2018-08-18T20:07:52.164Z,101805.34
2018-08-18T20:10:21.238Z,101807.66
2018-08-18T20:12:50.482Z,101803.23
2018-08-18T20:15:19.604Z,101805.92
2018-08-18T20:17:48.876Z,101805.76
2018-08-18T20:20:23.616Z,101802.78
2018-08-18T20:22:53.195Z,101795.87
2018-08-18T20:25:22.256Z,101801.38
2018-08-18T20:27:51.507Z,101805.75
2018-08-18T20:30:20.590Z,101797.53
2018-08-18T20:32:49.901Z,101798.76
2018-08-18T20:35:19.009Z,101799.97
2018-08-18T20:37:48.199Z,101801.91
2018-08-18T20:40:17.264Z,101805.44
2018-08-18T20:42:46.340Z,101801.64
2018-08-18T20:45:15.572Z,101800.46
2018-08-18T20:47:45.363Z,101804.59
2018-08-18T20:50:20.336Z,101802.54
2018-08-18T20:52:49.556Z,101804.72
2018-08-18T20:55:18.622Z,101798.34
2018-08-18T20:57:48.621Z,101803.37
2018-08-18T21:00:18.485Z,101800.55
2018-08-18T21:02:47.502Z,101806.79
2018-08-18T21:05:16.922Z,101807.38
2018-08-18T21:07:46.113Z,101809.70
2018-08-18T21:10:15.547Z,101802.48
2018-08-18T21:12:47.145Z,101802.48
2018-08-18T21:15:17.395Z,101806.73
2018-08-18T21:17:46.583Z,101811.97
2018-08-18T21:20:17.975Z,101812.19
2018-08-18T21:22:47.053Z,101813.25
2018-08-18T21:25:24.636Z,101810.55
2018-08-18T21:27:53.777Z,101809.09
2018-08-18T21:30:22.922Z,101812.83
2018-08-18T21:32:52.340Z,101821.50
2018-08-18T21:35:21.432Z,101819.94
2018-08-18T21:37:51.569Z,101820.52
2018-08-18T21:40:20.975Z,101815.38
2018-08-18T21:42:50.065Z,101818.06
2018-08-18T21:45:19.228Z,101825.12
2018-08-18T21:47:48.645Z,101827.45
2018-08-18T21:50:17.715Z,101827.09
2018-08-18T21:52:46.812Z,101828.15
2018-08-18T21:55:16.098Z,101829.46
2018-08-18T21:57:56.054Z,101830.44
2018-08-18T22:00:30.515Z,101830.91
2018-08-18T22:02:59.780Z,101830.22
2018-08-18T22:05:31.894Z,101836.39
2018-08-18T22:08:01.156Z,101829.39
2018-08-18T22:10:38.068Z,101830.13
2018-08-18T22:13:07.354Z,101833.86
2018-08-18T22:15:36.455Z,101842.41
2018-08-18T22:18:05.711Z,101844.23
2018-08-18T22:20:35.477Z,101860.06
2018-08-18T22:23:07.241Z,101849.80
2018-08-18T22:25:37.053Z,101845.02
2018-08-18T22:28:06.250Z,101847.99
2018-08-18T22:30:35.423Z,101853.94
2018-08-18T22:33:04.782Z,101853.40
2018-08-18T22:35:33.912Z,101851.15
2018-08-18T22:38:03.000Z,101856.25
2018-08-18T22:40:33.537Z,101858.44
2018-08-18T22:43:02.596Z,101854.45
2018-08-18T22:45:31.759Z,101857.31
2018-08-18T22:48:01.334Z,101863.43
2018-08-18T22:50:30.498Z,101861.84
2018-08-18T22:52:59.587Z,101855.92
2018-08-18T22:55:31.920Z,101857.95
2018-08-18T22:58:02.062Z,101857.44
2018-08-18T23:00:34.210Z,101864.39
2018-08-18T23:03:03.416Z,101861.92
2018-08-18T23:05:32.493Z,101859.46
2018-08-18T23:08:01.816Z,101859.46
2018-08-18T23:10:32.211Z,101855.29
2018-08-18T23:13:02.869Z,101856.99
2018-08-18T23:15:31.981Z,101858.14
2018-08-18T23:18:01.353Z,101859.98
2018-08-18T23:20:30.696Z,101852.68
2018-08-18T23:23:00.922Z,101852.78
2018-08-18T23:25:31.483Z,101852.58
2018-08-18T23:28:00.580Z,101863.66
2018-08-18T23:30:37.827Z,101865.32
2018-08-18T23:33:08.558Z,101863.98
2018-08-18T23:35:37.984Z,101861.62
2018-08-18T23:38:07.146Z,101860.48
2018-08-18T23:40:36.939Z,101861.06
2018-08-18T23:43:06.247Z,101865.66
2018-08-18T23:45:41.072Z,101856.95
2018-08-18T23:48:12.255Z,101856.22
2018-08-18T23:50:42.917Z,101861.79
2018-08-18T23:53:13.805Z,101857.11
2018-08-18T23:55:50.245Z,101850.63
2018-08-18T23:58:21.708Z,101845.68
